METAR and TAF’s


Available data for KLBB from the past 2 hours
LUBBOCK, TX
Metar
KLBB 210853Z 15009KT 10SM FEW025 SCT050 13/11 A2988 RMK AO2 SLP086 T01330106 58008

08:53 UTC

Wind: 150° 9kt

Visibility: 10 SM

Sky: FEW 2500 ft

Temp: 13 deg C / 55.4 deg F

Dewpoint: 11 deg C / 51.8 deg F

Pressure: 29.88 inHg

TAF
KLBB 210805Z 2108/2206 17011KT P6SM SCT007 OVC015 FM211000 20011KT 6SM BR BKN007 OVC015 FM211500 34015KT P6SM SCT010 BKN020 FM211700 36017KT P6SM SCT030 BKN050 BKN250 FM220100 03010KT P6SM SCT035
Available data for KCVN from the past 2 hours
CLOVIS MUNI, NM
Metar
KCVN 210856Z AUTO 36013KT 4SM BR OVC004 08/08 A2994 RMK AO2 SLP117 60000 T00830078 50001

08:56 UTC

Wind: 360° 13kt

Visibility: 4 SM

Sky: OVC 400 ft

Temp: 8 deg C / 46.4 deg F

Dewpoint: 8 deg C / 46.4 deg F

Pressure: 29.94 inHg